Ag Nektarios Aiginas — SX7083 — position and weather

sailwx.info

Track history (hours):
 
Tides and Currents Weather Stations Pressure Air Temp Water Temp Dewpoint Dewpoint Depression Visibility Wind Speed Wind Dir Waves Ship Positions

Ag Nektarios Aiginas

Last reported at 2014-Aug-27 16:33 UTC. Time now 2014-Aug-27 17:12 UTC.
Position N 37°53' E 023°34'.

Length 75 m; draft 2.7 m.

Type: Passenger vessel. MMSI: 237021400.

Date/timePositionNaut miles runAvg speedWind from/ knotsBaromVisibWave heightAir tempDewpointWater temp
2014-Aug-27 16:33N 37°53' E 023°34'10 8.9
2014-Aug-27 15:23N 37°45' E 023°25'3 4.2
2014-Aug-27 14:33N 37°48' E 023°27'1212.0
2014-Aug-27 13:33N 37°56' E 023°38'3 3.0
2014-Aug-27 12:33N 37°54' E 023°35'1212.4
2014-Aug-27 11:33N 37°45' E 023°25'1 0.8
2014-Aug-27 10:33N 37°46' E 023°25'1312.8
2014-Aug-27 09:33N 37°55' E 023°36'0 0.0
2014-Aug-27 08:33N 37°55' E 023°36'1312.6
2014-Aug-27 07:33N 37°46' E 023°25'3 2.5
2014-Aug-27 06:33N 37°48' E 023°27'1212.1
2014-Aug-27 05:33N 37°56' E 023°38'1 0.8
2014-Aug-27 04:33N 37°57' E 023°38'0 0.0
2014-Aug-26 17:16N 37°57' E 023°38'5 6.8
2014-Aug-26 16:33N 37°53' E 023°34'10 5.1
2014-Aug-26 14:33N 37°46' E 023°25'1212.2
2014-Aug-26 13:33N 37°55' E 023°36'2 1.5
2014-Aug-26 12:33N 37°56' E 023°37'1313.0
2014-Aug-26 11:33N 37°47' E 023°26'1 1.5
2014-Aug-26 10:33N 37°48' E 023°27'1212.4
2014-Aug-26 09:33N 37°57' E 023°38'2 2.0
2014-Aug-26 08:34N 37°55' E 023°36'1312.7
2014-Aug-26 07:33N 37°46' E 023°25'1 1.0
2014-Aug-26 06:34N 37°47' E 023°26'1312.5
2014-Aug-26 05:33N 37°56' E 023°37'2 1.6
2014-Aug-26 04:34N 37°57' E 023°38'2 0.2
2014-Aug-25 16:33N 37°56' E 023°36'1312.9
2014-Aug-25 15:33N 37°46' E 023°25'1 0.7
2014-Aug-25 14:33N 37°46' E 023°24'1312.6
2014-Aug-25 13:33N 37°54' E 023°36'1 0.6
2014-Aug-25 12:33N 37°54' E 023°35'1212.4
2014-Aug-25 11:33N 37°45' E 023°25'2 1.6
2014-Aug-25 10:33N 37°47' E 023°26'1212.4
2014-Aug-25 09:33N 37°56' E 023°37'3 2.8
2014-Aug-25 08:33N 37°53' E 023°35'9 4.6
2014-Aug-25 06:33N 37°47' E 023°26'1312.5
2014-Aug-25 05:33N 37°56' E 023°37'1 0.1
2014-Aug-24 20:26N 37°57' E 023°38'1112.4
2014-Aug-24 19:33N 37°49' E 023°29'5 4.5
2014-Aug-24 18:29N 37°45' E 023°25'8 8.5
2014-Aug-24 17:33N 37°51' E 023°32'8 7.9
2014-Aug-24 16:33N 37°57' E 023°39'10 9.9
2014-Aug-24 15:33N 37°49' E 023°30'6 5.7
2014-Aug-24 14:32N 37°45' E 023°26'7 7.1
2014-Aug-24 13:33N 37°50' E 023°31'9 8.8
2014-Aug-24 12:33N 37°57' E 023°39'9 8.7
2014-Aug-24 11:33N 37°50' E 023°31'7 7.1
2014-Aug-24 10:33N 37°45' E 023°25'5 4.5
2014-Aug-24 09:33N 37°48' E 023°29'1111.2
2014-Aug-24 08:33N 37°57' E 023°39'7 7.3
2014-Aug-24 07:33N 37°51' E 023°33'8 8.5
2014-Aug-24 06:33N 37°45' E 023°25'6 6.0
2014-Aug-24 05:33N 37°49' E 023°30'10 9.8
2014-Aug-24 04:33N 37°57' E 023°38'2 0.1
2014-Aug-22 20:33N 37°56' E 023°36'1312.8
2014-Aug-22 19:34N 37°46' E 023°25'3 2.9
2014-Aug-22 18:33N 37°48' E 023°28'1211.8
2014-Aug-22 17:34N 37°57' E 023°39'9 8.7
2014-Aug-22 16:33N 37°50' E 023°31'7 6.2
2014-Aug-22 15:25N 37°45' E 023°25'6 6.4
2014-Aug-22 14:33N 37°49' E 023°30'1010.3
2014-Aug-22 13:33N 37°57' E 023°38'5 4.6
2014-Aug-22 12:33N 37°54' E 023°34'1111.2
2014-Aug-22 11:33N 37°45' E 023°25'3 3.4
2014-Aug-22 10:33N 37°48' E 023°27'13 9.1
2014-Aug-22 09:11N 37°57' E 023°38'2 3.8
2014-Aug-22 08:33N 37°55' E 023°36'1312.6
2014-Aug-22 07:33N 37°46' E 023°25'2 1.7
2014-Aug-22 06:33N 37°47' E 023°27'1312.6
2014-Aug-22 05:33N 37°56' E 023°38'1 0.8
2014-Aug-22 04:33N 37°57' E 023°38'2 0.2
2014-Aug-21 16:33N 37°55' E 023°36'1312.8
2014-Aug-21 15:33N 37°46' E 023°25'0 0.5
2014-Aug-21 14:33N 37°46' E 023°25'1312.5
2014-Aug-21 13:33N 37°55' E 023°36'2 2.3
2014-Aug-21 12:33N 37°56' E 023°37'1312.8
2014-Aug-21 11:33N 37°47' E 023°26'1 0.6
2014-Aug-21 10:33N 37°47' E 023°26'1312.6
2014-Aug-21 09:33N 37°56' E 023°37'1 0.9
2014-Aug-21 08:33N 37°56' E 023°37'1212.5
2014-Aug-21 07:33N 37°47' E 023°27'1 0.6
2014-Aug-21 06:33N 37°47' E 023°26'1312.6
2014-Aug-21 05:33N 37°56' E 023°37'1 1.2
2014-Aug-21 04:33N 37°57' E 023°38'0 0.0
2014-Aug-20 17:12N 37°57' E 023°38'4 6.5
2014-Aug-20 16:33N 37°54' E 023°35'1211.5
2014-Aug-20 15:33N 37°45' E 023°25'1 1.5
2014-Aug-20 14:33N 37°46' E 023°25'1312.6
2014-Aug-20 13:33N 37°55' E 023°36'2 1.8
2014-Aug-20 12:33N 37°56' E 023°38'1312.7
2014-Aug-20 11:33N 37°47' E 023°26'2 1.7
2014-Aug-20 10:33N 37°46' E 023°25'1312.7
2014-Aug-20 09:33N 37°55' E 023°36'2 1.5
2014-Aug-20 08:30N 37°56' E 023°37'1212.7
2014-Aug-20 07:33N 37°47' E 023°27'1 1.1
2014-Aug-20 06:32N 37°47' E 023°26'1312.9
2014-Aug-20 05:33N 37°56' E 023°37'3 0.3
2014-Aug-19 16:33N 37°53' E 023°34'10 4.7
2014-Aug-19 14:30N 37°46' E 023°25'1212.8
2014-Aug-19 13:33N 37°55' E 023°36'1 0.9
2014-Aug-19 12:33N 37°56' E 023°37'1212.5
2014-Aug-19 11:33N 37°47' E 023°26'1 0.5
2014-Aug-19 10:28N 37°46' E 023°26'1212.9
2014-Aug-19 09:33N 37°55' E 023°36'1 1.2
2014-Aug-19 08:33N 37°56' E 023°37'1212.5
2014-Aug-19 07:33N 37°47' E 023°26'0 0.2
2014-Aug-19 06:33N 37°47' E 023°26'1312.9
2014-Aug-19 05:33N 37°56' E 023°37'1 1.3
2014-Aug-19 04:33N 37°57' E 023°38'4 0.3
2014-Aug-18 16:34N 37°54' E 023°35'1211.7
2014-Aug-18 15:32N 37°45' E 023°25'2 1.9
2014-Aug-18 14:31N 37°47' E 023°25'1212.9
2014-Aug-18 13:34N 37°55' E 023°36'1 0.8
2014-Aug-18 12:33N 37°55' E 023°36'1312.6
2014-Aug-18 11:34N 37°46' E 023°25'1 0.7
2014-Aug-18 10:32N 37°46' E 023°25'1312.9
2014-Aug-18 09:34N 37°55' E 023°36'1 0.7
2014-Aug-18 08:34N 37°55' E 023°36'1312.6
2014-Aug-18 07:34N 37°46' E 023°25'1 1.3
2014-Aug-18 06:33N 37°47' E 023°26'1312.8
2014-Aug-18 05:33N 37°56' E 023°37'14 1.3
2014-Aug-17 18:20N 37°45' E 023°25'810.6
2014-Aug-17 17:33N 37°51' E 023°32'8 7.6
2014-Aug-17 16:34N 37°57' E 023°39'  
Track history (hours):
 
Tides and Currents Weather Stations Pressure Air Temp Water Temp Dewpoint Dewpoint Depression Visibility Wind Speed Wind Dir Waves Ship Positions

Ag Nektarios Aiginas

Last reported at 2014-Aug-27 16:33 UTC. Time now 2014-Aug-27 17:12 UTC.
Position N 37°53' E 023°34'.

Length 75 m; draft 2.7 m.

Type: Passenger vessel. MMSI: 237021400.

Date/timePositionNaut miles runAvg speedWind from/ knotsBaromVisibWave heightAir tempDewpointWater temp
2014-Aug-27 16:33N 37°53' E 023°34'10 8.9
2014-Aug-27 15:23N 37°45' E 023°25'3 4.2
2014-Aug-27 14:33N 37°48' E 023°27'1212.0
2014-Aug-27 13:33N 37°56' E 023°38'3 3.0
2014-Aug-27 12:33N 37°54' E 023°35'1212.4
2014-Aug-27 11:33N 37°45' E 023°25'1 0.8
2014-Aug-27 10:33N 37°46' E 023°25'1312.8
2014-Aug-27 09:33N 37°55' E 023°36'0 0.0
2014-Aug-27 08:33N 37°55' E 023°36'1312.6
2014-Aug-27 07:33N 37°46' E 023°25'3 2.5
2014-Aug-27 06:33N 37°48' E 023°27'1212.1
2014-Aug-27 05:33N 37°56' E 023°38'1 0.8
2014-Aug-27 04:33N 37°57' E 023°38'0 0.0
2014-Aug-26 17:16N 37°57' E 023°38'5 6.8
2014-Aug-26 16:33N 37°53' E 023°34'10 5.1
2014-Aug-26 14:33N 37°46' E 023°25'1212.2
2014-Aug-26 13:33N 37°55' E 023°36'2 1.5
2014-Aug-26 12:33N 37°56' E 023°37'1313.0
2014-Aug-26 11:33N 37°47' E 023°26'1 1.5
2014-Aug-26 10:33N 37°48' E 023°27'1212.4
2014-Aug-26 09:33N 37°57' E 023°38'2 2.0
2014-Aug-26 08:34N 37°55' E 023°36'1312.7
2014-Aug-26 07:33N 37°46' E 023°25'1 1.0
2014-Aug-26 06:34N 37°47' E 023°26'1312.5
2014-Aug-26 05:33N 37°56' E 023°37'2 1.6
2014-Aug-26 04:34N 37°57' E 023°38'2 0.2
2014-Aug-25 16:33N 37°56' E 023°36'1312.9
2014-Aug-25 15:33N 37°46' E 023°25'1 0.7
2014-Aug-25 14:33N 37°46' E 023°24'1312.6
2014-Aug-25 13:33N 37°54' E 023°36'1 0.6
2014-Aug-25 12:33N 37°54' E 023°35'1212.4
2014-Aug-25 11:33N 37°45' E 023°25'2 1.6
2014-Aug-25 10:33N 37°47' E 023°26'1212.4
2014-Aug-25 09:33N 37°56' E 023°37'3 2.8
2014-Aug-25 08:33N 37°53' E 023°35'9 4.6
2014-Aug-25 06:33N 37°47' E 023°26'1312.5
2014-Aug-25 05:33N 37°56' E 023°37'1 0.1
2014-Aug-24 20:26N 37°57' E 023°38'1112.4
2014-Aug-24 19:33N 37°49' E 023°29'5 4.5
2014-Aug-24 18:29N 37°45' E 023°25'8 8.5
2014-Aug-24 17:33N 37°51' E 023°32'8 7.9
2014-Aug-24 16:33N 37°57' E 023°39'10 9.9
2014-Aug-24 15:33N 37°49' E 023°30'6 5.7
2014-Aug-24 14:32N 37°45' E 023°26'7 7.1
2014-Aug-24 13:33N 37°50' E 023°31'9 8.8
2014-Aug-24 12:33N 37°57' E 023°39'9 8.7
2014-Aug-24 11:33N 37°50' E 023°31'7 7.1
2014-Aug-24 10:33N 37°45' E 023°25'5 4.5
2014-Aug-24 09:33N 37°48' E 023°29'1111.2
2014-Aug-24 08:33N 37°57' E 023°39'7 7.3
2014-Aug-24 07:33N 37°51' E 023°33'8 8.5
2014-Aug-24 06:33N 37°45' E 023°25'6 6.0
2014-Aug-24 05:33N 37°49' E 023°30'10 9.8
2014-Aug-24 04:33N 37°57' E 023°38'2 0.1
2014-Aug-22 20:33N 37°56' E 023°36'1312.8
2014-Aug-22 19:34N 37°46' E 023°25'3 2.9
2014-Aug-22 18:33N 37°48' E 023°28'1211.8
2014-Aug-22 17:34N 37°57' E 023°39'9 8.7
2014-Aug-22 16:33N 37°50' E 023°31'7 6.2
2014-Aug-22 15:25N 37°45' E 023°25'6 6.4
2014-Aug-22 14:33N 37°49' E 023°30'1010.3
2014-Aug-22 13:33N 37°57' E 023°38'5 4.6
2014-Aug-22 12:33N 37°54' E 023°34'1111.2
2014-Aug-22 11:33N 37°45' E 023°25'3 3.4
2014-Aug-22 10:33N 37°48' E 023°27'13 9.1
2014-Aug-22 09:11N 37°57' E 023°38'2 3.8
2014-Aug-22 08:33N 37°55' E 023°36'1312.6
2014-Aug-22 07:33N 37°46' E 023°25'2 1.7
2014-Aug-22 06:33N 37°47' E 023°27'1312.6
2014-Aug-22 05:33N 37°56' E 023°38'1 0.8
2014-Aug-22 04:33N 37°57' E 023°38'2 0.2
2014-Aug-21 16:33N 37°55' E 023°36'1312.8
2014-Aug-21 15:33N 37°46' E 023°25'0 0.5
2014-Aug-21 14:33N 37°46' E 023°25'1312.5
2014-Aug-21 13:33N 37°55' E 023°36'2 2.3
2014-Aug-21 12:33N 37°56' E 023°37'1312.8
2014-Aug-21 11:33N 37°47' E 023°26'1 0.6
2014-Aug-21 10:33N 37°47' E 023°26'1312.6
2014-Aug-21 09:33N 37°56' E 023°37'1 0.9
2014-Aug-21 08:33N 37°56' E 023°37'1212.5
2014-Aug-21 07:33N 37°47' E 023°27'1 0.6
2014-Aug-21 06:33N 37°47' E 023°26'1312.6
2014-Aug-21 05:33N 37°56' E 023°37'1 1.2
2014-Aug-21 04:33N 37°57' E 023°38'0 0.0
2014-Aug-20 17:12N 37°57' E 023°38'4 6.5
2014-Aug-20 16:33N 37°54' E 023°35'1211.5
2014-Aug-20 15:33N 37°45' E 023°25'1 1.5
2014-Aug-20 14:33N 37°46' E 023°25'1312.6
2014-Aug-20 13:33N 37°55' E 023°36'2 1.8
2014-Aug-20 12:33N 37°56' E 023°38'1312.7
2014-Aug-20 11:33N 37°47' E 023°26'2 1.7
2014-Aug-20 10:33N 37°46' E 023°25'1312.7
2014-Aug-20 09:33N 37°55' E 023°36'2 1.5
2014-Aug-20 08:30N 37°56' E 023°37'1212.7
2014-Aug-20 07:33N 37°47' E 023°27'1 1.1
2014-Aug-20 06:32N 37°47' E 023°26'1312.9
2014-Aug-20 05:33N 37°56' E 023°37'3 0.3
2014-Aug-19 16:33N 37°53' E 023°34'10 4.7
2014-Aug-19 14:30N 37°46' E 023°25'1212.8
2014-Aug-19 13:33N 37°55' E 023°36'1 0.9
2014-Aug-19 12:33N 37°56' E 023°37'1212.5
2014-Aug-19 11:33N 37°47' E 023°26'1 0.5
2014-Aug-19 10:28N 37°46' E 023°26'1212.9
2014-Aug-19 09:33N 37°55' E 023°36'1 1.2
2014-Aug-19 08:33N 37°56' E 023°37'1212.5
2014-Aug-19 07:33N 37°47' E 023°26'0 0.2
2014-Aug-19 06:33N 37°47' E 023°26'1312.9
2014-Aug-19 05:33N 37°56' E 023°37'1 1.3
2014-Aug-19 04:33N 37°57' E 023°38'4 0.3
2014-Aug-18 16:34N 37°54' E 023°35'1211.7
2014-Aug-18 15:32N 37°45' E 023°25'2 1.9
2014-Aug-18 14:31N 37°47' E 023°25'1212.9
2014-Aug-18 13:34N 37°55' E 023°36'1 0.8
2014-Aug-18 12:33N 37°55' E 023°36'1312.6
2014-Aug-18 11:34N 37°46' E 023°25'1 0.7
2014-Aug-18 10:32N 37°46' E 023°25'1312.9
2014-Aug-18 09:34N 37°55' E 023°36'1 0.7
2014-Aug-18 08:34N 37°55' E 023°36'1312.6
2014-Aug-18 07:34N 37°46' E 023°25'1 1.3
2014-Aug-18 06:33N 37°47' E 023°26'1312.8
2014-Aug-18 05:33N 37°56' E 023°37'14 1.3
2014-Aug-17 18:20N 37°45' E 023°25'810.6
2014-Aug-17 17:33N 37°51' E 023°32'8 7.6
2014-Aug-17 16:34N 37°57' E 023°39'  

Dump ship's entire track history